Brisas del Lago, Puerto Rico
Current Conditions -  °F | °C
As of 5:56 AM on Thursday 18 Dec 2014 (Local Time) from TJSJ Reporting Station
Scattered Clouds Scattered Clouds  
Wind Chill: 77°   Ceiling: Unl
Heat Index: 79°   Visibility: 10mi
Dew Point: 67°   Wind: 8mph
Humidity: 71%   Direction: 40°NE
Pressure: 30.01"   Gusts: NA
Location:  18.0474°N, 66.5517°W
Report Text: TJSJ 180956Z 04007KT 10SM FEW022 SCT055 SCT085 25/19 A3001 RMK AO2 RAE01 SLP160 P0001 T02500194
Loading
Personal Weather Stations






























Interactive Weather Map New forecast layout! Learn more

10-Day Weather Forecast

Advertisements
Track Severe Weather on mobile